createdAt,value
2018-10-21T00:01:31.219Z,100949.00
2018-10-21T00:04:00.581Z,100951.00
2018-10-21T00:06:29.532Z,100944.00
2018-10-21T00:08:58.712Z,100949.00
2018-10-21T00:11:27.890Z,100945.00
2018-10-21T00:13:57.031Z,100946.00
2018-10-21T00:16:26.207Z,100944.00
2018-10-21T00:18:55.375Z,100946.00
2018-10-21T00:21:24.539Z,100952.00
2018-10-21T00:23:53.698Z,100947.00
2018-10-21T00:26:22.727Z,100941.00
2018-10-21T00:28:51.879Z,100950.00
2018-10-21T00:31:20.785Z,100949.00
2018-10-21T00:33:49.976Z,100945.00
2018-10-21T00:36:18.914Z,100945.00
2018-10-21T00:38:48.093Z,100946.00
2018-10-21T00:41:17.015Z,100953.00
2018-10-21T00:43:46.223Z,100953.00
2018-10-21T00:46:15.425Z,100946.00
2018-10-21T00:48:44.351Z,100952.00
2018-10-21T00:51:13.303Z,100949.00
2018-10-21T00:53:42.424Z,100954.00
2018-10-21T00:56:11.579Z,100951.00
2018-10-21T00:58:40.774Z,100954.00
2018-10-21T01:01:09.955Z,100959.00
2018-10-21T01:03:38.899Z,100946.00
2018-10-21T01:06:08.038Z,100955.00
2018-10-21T01:08:37.279Z,100958.00
2018-10-21T01:11:06.141Z,100957.00
2018-10-21T01:13:35.329Z,100953.00
2018-10-21T01:16:04.363Z,100959.00
2018-10-21T01:18:33.552Z,100966.00
2018-10-21T01:21:02.957Z,100965.00
2018-10-21T01:23:32.083Z,100964.00
2018-10-21T01:26:01.228Z,100965.00
2018-10-21T01:28:30.135Z,100965.00
2018-10-21T01:30:59.279Z,100957.00
2018-10-21T01:33:28.430Z,100965.00
2018-10-21T01:35:57.628Z,100962.00
2018-10-21T01:38:26.811Z,100945.00
2018-10-21T01:40:57.099Z,100943.00
2018-10-21T01:43:30.310Z,100941.00
2018-10-21T01:45:59.929Z,100937.00
2018-10-21T01:48:29.971Z,100932.00
2018-10-21T01:50:59.201Z,100924.00
2018-10-21T01:53:28.120Z,100925.00
2018-10-21T01:55:57.268Z,100923.00
2018-10-21T01:58:26.443Z,100923.00
2018-10-21T02:00:55.615Z,100927.00
2018-10-21T02:03:24.803Z,100931.00
2018-10-21T02:05:53.750Z,100928.00
2018-10-21T02:08:22.920Z,100938.00
2018-10-21T02:10:51.842Z,100927.00
2018-10-21T02:13:21.010Z,100928.00
2018-10-21T02:15:49.918Z,100925.00
2018-10-21T02:18:19.103Z,100929.00
2018-10-21T02:20:48.243Z,100929.00
2018-10-21T02:23:17.407Z,100928.00
2018-10-21T02:25:46.566Z,100914.00
2018-10-21T02:28:15.739Z,100920.00
2018-10-21T02:30:44.652Z,100910.00
2018-10-21T02:33:13.976Z,100906.00
2018-10-21T02:35:42.862Z,100911.00
2018-10-21T02:38:12.033Z,100916.00
2018-10-21T02:41:55.391Z,100912.00
2018-10-21T02:44:25.058Z,100902.00
2018-10-21T02:46:55.265Z,100908.00
2018-10-21T02:49:24.434Z,100908.00
2018-10-21T02:51:58.948Z,100904.00
2018-10-21T02:54:29.250Z,100906.00
2018-10-21T02:56:58.683Z,100915.00
2018-10-21T02:59:28.151Z,100910.00
2018-10-21T03:01:57.056Z,100909.00
2018-10-21T03:04:26.197Z,100916.00
2018-10-21T03:06:55.135Z,100922.00
2018-10-21T03:09:24.333Z,100925.00
2018-10-21T03:11:53.269Z,100916.00
2018-10-21T03:14:22.444Z,100916.00
2018-10-21T03:16:51.655Z,100923.00
2018-10-21T03:19:20.819Z,100920.00
2018-10-21T03:21:49.980Z,100920.00
2018-10-21T03:24:19.233Z,100923.00
2018-10-21T03:26:49.097Z,100918.00
2018-10-21T03:29:18.244Z,100925.00
2018-10-21T03:31:47.168Z,100913.00
2018-10-21T03:34:16.308Z,100925.00
2018-10-21T03:36:45.207Z,100928.00
2018-10-21T03:39:14.356Z,100918.00
2018-10-21T03:41:43.415Z,100921.00
2018-10-21T03:44:12.643Z,100919.00
2018-10-21T03:46:41.799Z,100925.00
2018-10-21T03:49:10.979Z,100917.00
2018-10-21T03:51:40.126Z,100914.00
2018-10-21T03:54:09.291Z,100912.00
2018-10-21T03:56:38.468Z,100918.00
2018-10-21T03:59:07.642Z,100911.00
2018-10-21T04:01:36.563Z,100924.00
2018-10-21T04:04:06.320Z,100914.00
2018-10-21T04:06:35.245Z,100921.00
2018-10-21T04:09:05.958Z,100920.00
2018-10-21T04:11:35.099Z,100925.00
2018-10-21T04:14:04.264Z,100930.00
2018-10-21T04:16:33.411Z,100928.00
2018-10-21T04:19:02.604Z,100929.00
2018-10-21T04:21:31.738Z,100931.00
2018-10-21T04:24:00.658Z,100927.00
2018-10-21T04:26:29.598Z,100927.00
2018-10-21T04:28:58.759Z,100923.00
2018-10-21T04:31:27.931Z,100928.00
2018-10-21T04:33:56.847Z,100926.00
2018-10-21T04:36:27.687Z,100921.00
2018-10-21T04:40:16.314Z,100927.00
2018-10-21T04:42:45.800Z,100922.00
2018-10-21T04:45:16.140Z,100922.00
2018-10-21T04:47:45.364Z,100922.00
2018-10-21T04:50:14.611Z,100922.00
2018-10-21T04:52:43.763Z,100918.00
2018-10-21T04:55:14.087Z,100908.00
2018-10-21T04:57:44.514Z,100905.00
2018-10-21T05:00:16.339Z,100906.00
2018-10-21T05:02:45.480Z,100912.00
2018-10-21T05:05:15.174Z,100912.00
2018-10-21T05:07:44.387Z,100913.00
2018-10-21T05:10:22.864Z,100911.00
2018-10-21T05:12:52.087Z,100916.00
2018-10-21T05:15:21.727Z,100927.00
2018-10-21T05:17:50.814Z,100919.00
2018-10-21T05:20:19.777Z,100914.00
2018-10-21T05:22:49.024Z,100921.00
2018-10-21T05:25:17.958Z,100926.00
2018-10-21T05:27:47.124Z,100922.00
2018-10-21T05:30:16.345Z,100925.00
2018-10-21T05:32:45.262Z,100931.00
2018-10-21T05:35:15.599Z,100924.00
2018-10-21T05:37:44.808Z,100925.00
2018-10-21T05:40:16.778Z,100931.00
2018-10-21T05:42:46.010Z,100929.00
2018-10-21T05:45:15.219Z,100931.00
2018-10-21T05:47:44.441Z,100930.00
2018-10-21T05:50:14.659Z,100937.00
2018-10-21T05:52:44.059Z,100935.00
2018-10-21T05:55:13.878Z,100931.00
2018-10-21T05:57:43.086Z,100936.00
2018-10-21T06:00:16.563Z,100933.00
2018-10-21T06:02:45.767Z,100942.00
2018-10-21T06:05:43.711Z,100945.00
2018-10-21T06:08:12.928Z,100949.00
2018-10-21T06:10:42.810Z,100956.00
2018-10-21T06:13:12.175Z,100953.00
2018-10-21T06:15:41.498Z,100964.00
2018-10-21T06:18:14.131Z,100956.00
2018-10-21T06:20:45.661Z,100957.00
2018-10-21T06:23:14.584Z,100961.00
2018-10-21T06:25:43.731Z,100966.00
2018-10-21T06:28:12.959Z,100964.00
2018-10-21T06:30:42.129Z,100976.00
2018-10-21T06:33:11.176Z,100979.00
2018-10-21T06:35:40.276Z,100975.00
2018-10-21T06:38:09.206Z,100985.00
2018-10-21T06:40:38.121Z,100985.00
2018-10-21T06:43:07.011Z,100982.00
2018-10-21T06:45:36.202Z,100987.00
2018-10-21T06:48:05.499Z,100985.00
2018-10-21T06:50:34.642Z,100987.00
2018-10-21T06:53:03.592Z,100988.00
2018-10-21T06:55:32.759Z,100986.00
2018-10-21T06:58:01.909Z,100994.00
2018-10-21T07:00:30.847Z,100992.00
2018-10-21T07:03:00.107Z,100997.00
2018-10-21T07:06:39.842Z,100999.00
2018-10-21T07:09:09.089Z,100998.00
2018-10-21T07:11:38.303Z,101002.00
2018-10-21T07:14:07.246Z,101009.00
2018-10-21T07:16:36.338Z,101004.00
2018-10-21T07:19:05.524Z,101001.00
2018-10-21T07:21:34.721Z,101010.00
2018-10-21T07:24:03.941Z,101002.00
2018-10-21T07:26:33.133Z,101007.00
2018-10-21T07:29:02.056Z,101010.00
2018-10-21T07:31:30.966Z,101015.00
2018-10-21T07:34:00.167Z,101018.00
2018-10-21T07:36:29.193Z,101015.00
2018-10-21T07:38:58.263Z,101021.00
2018-10-21T07:41:27.183Z,101024.00
2018-10-21T07:43:56.107Z,101019.00
2018-10-21T07:46:25.395Z,101016.00
2018-10-21T07:48:54.899Z,101025.00
2018-10-21T07:51:24.043Z,101022.00
2018-10-21T07:53:53.201Z,101028.00
2018-10-21T07:56:22.262Z,101028.00
2018-10-21T07:58:51.455Z,101040.00
2018-10-21T08:01:20.515Z,101041.00
2018-10-21T08:03:49.536Z,101045.00
2018-10-21T08:06:34.461Z,101049.00
2018-10-21T08:09:05.202Z,101054.00
2018-10-21T08:11:34.412Z,101059.00
2018-10-21T08:14:03.346Z,101059.00
2018-10-21T08:16:32.539Z,101061.00
2018-10-21T08:19:01.771Z,101060.00
2018-10-21T08:21:30.707Z,101065.00
2018-10-21T08:23:59.890Z,101064.00
2018-10-21T08:26:28.816Z,101071.00
2018-10-21T08:28:58.008Z,101075.00
2018-10-21T08:31:27.356Z,101078.00
2018-10-21T08:33:56.558Z,101071.00
2018-10-21T08:36:25.694Z,101068.00
2018-10-21T08:38:55.110Z,101071.00
2018-10-21T08:41:24.334Z,101068.00
2018-10-21T08:43:53.313Z,101073.00
2018-10-21T08:46:22.602Z,101066.00
2018-10-21T08:48:52.339Z,101065.00
2018-10-21T08:51:21.309Z,101077.00
2018-10-21T08:53:50.515Z,101069.00
2018-10-21T08:56:19.475Z,101072.00
2018-10-21T08:58:48.765Z,101072.00
2018-10-21T09:01:17.801Z,101077.00
2018-10-21T09:03:46.731Z,101066.00
2018-10-21T09:06:16.015Z,101076.00
2018-10-21T09:08:44.955Z,101069.00
2018-10-21T09:11:14.110Z,101068.00
2018-10-21T09:13:43.340Z,101067.00
2018-10-21T09:16:12.622Z,101051.00
2018-10-21T09:18:41.517Z,101061.00
2018-10-21T09:21:10.647Z,101064.00
2018-10-21T09:23:39.668Z,101056.00
2018-10-21T09:26:08.556Z,101061.00
2018-10-21T09:28:37.532Z,101061.00
2018-10-21T09:31:06.601Z,101061.00
2018-10-21T09:33:35.760Z,101064.00
2018-10-21T09:36:04.816Z,101060.00
2018-10-21T09:38:33.955Z,101065.00
2018-10-21T09:41:03.378Z,101072.00
2018-10-21T09:43:32.647Z,101069.00
2018-10-21T09:46:01.816Z,101063.00
2018-10-21T09:48:30.778Z,101060.00
2018-10-21T09:50:59.959Z,101062.00
2018-10-21T09:53:29.171Z,101066.00
2018-10-21T09:55:58.359Z,101055.00
2018-10-21T09:58:27.635Z,101054.00
2018-10-21T10:01:02.154Z,101050.00
2018-10-21T10:03:31.166Z,101052.00
2018-10-21T10:06:00.411Z,101044.00
2018-10-21T10:08:29.369Z,101043.00
2018-10-21T10:10:58.608Z,101052.00
2018-10-21T10:13:27.835Z,101052.00
2018-10-21T10:15:57.044Z,101041.00
2018-10-21T10:18:26.271Z,101034.00
2018-10-21T10:20:55.451Z,101033.00
2018-10-21T10:23:24.694Z,101036.00
2018-10-21T10:25:53.694Z,101029.00
2018-10-21T10:28:22.960Z,101033.00
2018-10-21T10:30:52.147Z,101028.00
2018-10-21T10:33:21.106Z,101022.00
2018-10-21T10:35:50.048Z,101024.00
2018-10-21T10:38:19.032Z,101019.00
2018-10-21T10:40:48.833Z,101017.00
2018-10-21T10:43:18.816Z,101015.00
2018-10-21T10:45:48.137Z,101009.00
2018-10-21T10:48:17.247Z,101004.00
2018-10-21T10:50:46.323Z,101010.00
2018-10-21T10:53:15.489Z,100994.00
2018-10-21T10:55:46.169Z,100997.00
2018-10-21T10:58:16.384Z,100999.00
2018-10-21T11:00:45.554Z,100994.00
2018-10-21T11:03:14.571Z,100998.00
2018-10-21T11:05:43.652Z,100995.00
2018-10-21T11:08:13.176Z,100998.00
2018-10-21T11:10:42.138Z,101001.00
2018-10-21T11:13:11.175Z,100993.00
2018-10-21T11:15:40.287Z,100990.00
2018-10-21T11:18:10.410Z,100984.00
2018-10-21T11:20:39.576Z,100985.00
2018-10-21T11:23:08.876Z,100987.00
2018-10-21T11:25:38.179Z,100985.00
2018-10-21T11:28:07.478Z,100980.00
2018-10-21T11:30:36.748Z,100985.00
2018-10-21T11:33:06.581Z,100981.00
2018-10-21T11:35:35.633Z,100983.00
2018-10-21T11:38:05.292Z,100971.00
2018-10-21T11:40:34.274Z,100973.00
2018-10-21T11:43:03.269Z,100971.00
2018-10-21T11:45:32.481Z,100976.00
2018-10-21T11:48:01.647Z,100976.00
2018-10-21T11:50:30.848Z,100966.00
2018-10-21T11:52:59.786Z,100973.00
2018-10-21T11:55:33.127Z,100968.00
2018-10-21T11:58:02.363Z,100957.00
2018-10-21T12:00:31.609Z,100949.00
2018-10-21T12:03:00.797Z,100961.00
2018-10-21T12:05:29.750Z,100965.00
2018-10-21T12:07:59.096Z,100957.00
2018-10-21T12:10:28.295Z,100967.00
2018-10-21T12:12:57.620Z,100958.00
2018-10-21T12:15:26.861Z,100961.00
2018-10-21T12:17:56.059Z,100953.00
2018-10-21T12:20:25.042Z,100957.00
2018-10-21T12:22:54.290Z,100947.00
2018-10-21T12:25:23.571Z,100950.00
2018-10-21T12:27:52.739Z,100955.00
2018-10-21T12:30:21.690Z,100952.00
2018-10-21T12:32:50.846Z,100956.00
2018-10-21T12:35:20.255Z,100954.00
2018-10-21T12:37:49.431Z,100949.00
2018-10-21T12:40:18.438Z,100951.00
2018-10-21T12:42:47.637Z,100952.00
2018-10-21T12:45:16.873Z,100951.00
2018-10-21T12:47:45.795Z,100946.00
2018-10-21T12:50:14.968Z,100941.00
2018-10-21T12:52:44.272Z,100943.00
2018-10-21T12:55:13.585Z,100937.00
2018-10-21T12:57:42.711Z,100941.00
2018-10-21T13:00:11.730Z,100936.00
2018-10-21T13:02:41.818Z,100927.00
2018-10-21T13:05:10.837Z,100933.00
2018-10-21T13:07:41.140Z,100928.00
2018-10-21T13:10:10.425Z,100930.00
2018-10-21T13:12:39.595Z,100929.00
2018-10-21T13:15:08.774Z,100926.00
2018-10-21T13:17:38.070Z,100929.00
2018-10-21T13:20:07.336Z,100924.00
2018-10-21T13:22:36.496Z,100917.00
2018-10-21T13:25:05.628Z,100923.00
2018-10-21T13:27:34.797Z,100915.00
2018-10-21T13:30:04.034Z,100923.00
2018-10-21T13:32:32.982Z,100922.00
2018-10-21T13:35:02.368Z,100914.00
2018-10-21T13:37:31.315Z,100902.00
2018-10-21T13:40:00.479Z,100913.00
2018-10-21T13:42:29.381Z,100908.00
2018-10-21T13:44:58.894Z,100897.00
2018-10-21T13:47:28.048Z,100907.00
2018-10-21T13:49:57.377Z,100893.00
2018-10-21T13:52:26.534Z,100903.00
2018-10-21T13:54:56.201Z,100902.00
2018-10-21T13:57:25.459Z,100900.00
2018-10-21T13:59:54.504Z,100906.00
2018-10-21T14:02:23.867Z,100903.00
2018-10-21T14:04:53.002Z,100900.00
2018-10-21T14:07:22.392Z,100902.00
2018-10-21T14:09:51.497Z,100897.00
2018-10-21T14:12:20.716Z,100891.00
2018-10-21T14:14:49.957Z,100889.00
2018-10-21T14:17:19.159Z,100890.00
2018-10-21T14:19:48.416Z,100892.00
2018-10-21T14:22:18.542Z,100882.00
2018-10-21T14:24:47.762Z,100880.00
2018-10-21T14:27:16.759Z,100871.00
2018-10-21T14:29:45.907Z,100875.00
2018-10-21T14:32:15.107Z,100865.00
2018-10-21T14:34:44.566Z,100868.00
2018-10-21T14:37:13.807Z,100869.00
2018-10-21T14:39:42.735Z,100862.00
2018-10-21T14:42:11.887Z,100867.00
2018-10-21T14:44:41.287Z,100866.00
2018-10-21T14:47:10.458Z,100868.00
2018-10-21T14:49:39.643Z,100865.00
2018-10-21T14:52:08.794Z,100862.00
2018-10-21T14:54:37.723Z,100859.00
2018-10-21T14:57:06.911Z,100851.00
2018-10-21T14:59:36.104Z,100865.00
2018-10-21T15:02:05.444Z,100861.00
2018-10-21T15:04:34.791Z,100857.00
2018-10-21T15:07:03.767Z,100847.00
2018-10-21T15:09:32.871Z,100844.00
2018-10-21T15:12:01.786Z,100854.00
2018-10-21T15:14:31.020Z,100849.00
2018-10-21T15:16:59.954Z,100851.00
2018-10-21T15:19:29.148Z,100845.00
2018-10-21T15:21:58.457Z,100845.00
2018-10-21T15:24:27.409Z,100844.00
2018-10-21T15:26:56.625Z,100850.00
2018-10-21T15:29:25.573Z,100845.00
2018-10-21T15:31:54.643Z,100845.00
2018-10-21T15:34:23.853Z,100836.00
2018-10-21T15:36:52.769Z,100843.00
2018-10-21T15:39:43.061Z,100849.00
2018-10-21T15:42:18.401Z,100843.00
2018-10-21T15:44:47.587Z,100844.00
2018-10-21T15:47:16.515Z,100836.00
2018-10-21T15:49:45.853Z,100844.00
2018-10-21T15:52:15.308Z,100844.00
2018-10-21T15:54:44.314Z,100834.00
2018-10-21T15:57:13.404Z,100832.00
2018-10-21T15:59:42.662Z,100828.00
2018-10-21T16:02:11.921Z,100836.00
2018-10-21T16:04:40.809Z,100828.00
2018-10-21T16:07:13.075Z,100828.00
2018-10-21T16:09:42.232Z,100824.00
2018-10-21T16:12:11.182Z,100826.00
2018-10-21T16:14:40.417Z,100829.00
2018-10-21T16:17:09.730Z,100825.00
2018-10-21T16:19:39.532Z,100830.00
2018-10-21T16:22:08.954Z,100826.00
2018-10-21T16:24:38.151Z,100823.00
2018-10-21T16:27:07.513Z,100825.00
2018-10-21T16:29:36.587Z,100820.00
2018-10-21T16:32:06.308Z,100834.00
2018-10-21T16:34:35.126Z,100824.00
2018-10-21T16:37:04.122Z,100826.00
2018-10-21T16:39:33.076Z,100835.00
2018-10-21T16:42:04.437Z,100833.00
2018-10-21T16:44:33.883Z,100832.00
2018-10-21T16:47:03.395Z,100836.00
2018-10-21T16:49:32.530Z,100833.00
2018-10-21T16:52:02.074Z,100825.00
2018-10-21T16:54:31.136Z,100839.00
2018-10-21T16:57:00.428Z,100845.00
2018-10-21T16:59:29.400Z,100837.00
2018-10-21T17:01:58.563Z,100830.00
2018-10-21T17:04:27.812Z,100833.00
2018-10-21T17:06:56.930Z,100832.00
2018-10-21T17:09:26.287Z,100838.00
2018-10-21T17:11:55.122Z,100835.00
2018-10-21T17:14:24.070Z,100835.00
2018-10-21T17:16:53.467Z,100834.00
2018-10-21T17:19:22.835Z,100832.00
2018-10-21T17:21:51.758Z,100836.00
2018-10-21T17:24:21.022Z,100827.00
2018-10-21T17:26:50.383Z,100836.00
2018-10-21T17:29:19.648Z,100832.00
2018-10-21T17:31:49.795Z,100836.00
2018-10-21T17:34:19.171Z,100824.00
2018-10-21T17:36:48.382Z,100827.00
2018-10-21T17:39:17.387Z,100831.00
2018-10-21T17:41:46.563Z,100830.00
2018-10-21T17:44:15.659Z,100825.00
2018-10-21T17:46:44.876Z,100826.00
2018-10-21T17:49:14.151Z,100828.00
2018-10-21T17:51:43.380Z,100829.00
2018-10-21T17:54:12.543Z,100827.00
2018-10-21T17:56:47.063Z,100829.00
2018-10-21T17:59:16.317Z,100827.00
2018-10-21T18:01:45.222Z,100830.00
2018-10-21T18:04:14.217Z,100823.00
2018-10-21T18:06:43.179Z,100830.00
2018-10-21T18:09:12.897Z,100832.00
2018-10-21T18:11:41.865Z,100824.00
2018-10-21T18:14:11.028Z,100826.00
2018-10-21T18:16:39.991Z,100819.00
2018-10-21T18:19:09.406Z,100825.00
2018-10-21T18:21:38.511Z,100834.00
2018-10-21T18:24:07.753Z,100829.00
2018-10-21T18:26:36.907Z,100825.00
2018-10-21T18:29:06.949Z,100818.00
2018-10-21T18:31:36.139Z,100820.00
2018-10-21T18:34:05.157Z,100821.00
2018-10-21T18:36:34.546Z,100818.00
2018-10-21T18:39:03.680Z,100814.00
2018-10-21T18:41:32.868Z,100816.00
2018-10-21T18:44:01.825Z,100816.00
2018-10-21T18:46:30.985Z,100813.00
2018-10-21T18:49:00.256Z,100815.00
2018-10-21T18:51:29.389Z,100812.00
2018-10-21T18:53:58.562Z,100813.00
2018-10-21T18:56:27.631Z,100817.00
2018-10-21T18:58:56.889Z,100823.00
2018-10-21T19:01:26.177Z,100813.00
2018-10-21T19:03:55.146Z,100813.00
2018-10-21T19:06:24.347Z,100816.00
2018-10-21T19:08:53.337Z,100817.00
2018-10-21T19:11:22.692Z,100818.00
2018-10-21T19:13:51.671Z,100816.00
2018-10-21T19:16:21.040Z,100811.00
2018-10-21T19:18:50.202Z,100814.00
2018-10-21T19:21:19.367Z,100819.00
2018-10-21T19:23:48.507Z,100817.00
2018-10-21T19:26:17.459Z,100823.00
2018-10-21T19:28:46.479Z,100821.00
2018-10-21T19:31:15.831Z,100822.00
2018-10-21T19:33:44.817Z,100819.00
2018-10-21T19:36:13.990Z,100811.00
2018-10-21T19:38:43.022Z,100816.00
2018-10-21T19:41:12.216Z,100812.00
2018-10-21T19:43:41.231Z,100815.00
2018-10-21T19:46:10.278Z,100809.00
2018-10-21T19:48:39.469Z,100802.00
2018-10-21T19:51:08.658Z,100810.00
2018-10-21T20:02:46.118Z,100811.00
2018-10-21T20:05:15.196Z,100800.00
2018-10-21T20:07:44.599Z,100810.00
2018-10-21T20:10:14.810Z,100814.00
2018-10-21T20:12:43.695Z,100799.00
2018-10-21T20:15:13.466Z,100803.00
2018-10-21T20:17:42.757Z,100806.00
2018-10-21T20:20:12.351Z,100798.00
2018-10-21T20:22:41.747Z,100804.00
2018-10-21T20:25:11.367Z,100810.00
2018-10-21T20:27:40.546Z,100800.00
2018-10-21T20:30:11.591Z,100799.00
2018-10-21T20:32:40.584Z,100794.00
2018-10-21T20:35:10.565Z,100799.00
2018-10-21T20:37:39.533Z,100798.00
2018-10-21T20:40:09.425Z,100791.00
2018-10-21T20:42:38.484Z,100796.00
2018-10-21T20:45:08.662Z,100790.00
2018-10-21T20:47:37.843Z,100796.00
2018-10-21T20:50:07.055Z,100797.00
2018-10-21T20:52:36.643Z,100798.00
2018-10-21T20:55:05.691Z,100794.00
2018-10-21T20:57:34.913Z,100792.00
2018-10-21T21:00:03.996Z,100788.00
2018-10-21T21:02:32.926Z,100798.00
2018-10-21T21:05:02.199Z,100790.00
2018-10-21T21:07:31.182Z,100791.00
2018-10-21T21:10:00.416Z,100797.00
2018-10-21T21:12:29.523Z,100798.00
2018-10-21T21:14:58.618Z,100800.00
2018-10-21T21:17:27.818Z,100790.00
2018-10-21T21:19:56.982Z,100796.00
2018-10-21T21:22:26.163Z,100793.00
2018-10-21T21:24:55.148Z,100788.00
2018-10-21T21:27:24.350Z,100796.00
2018-10-21T21:29:53.298Z,100803.00
2018-10-21T21:32:22.499Z,100802.00
2018-10-21T21:34:51.455Z,100805.00
2018-10-21T21:37:20.721Z,100797.00
2018-10-21T21:39:49.903Z,100794.00
2018-10-21T21:42:18.881Z,100792.00
2018-10-21T21:44:48.005Z,100784.00
2018-10-21T21:47:17.291Z,100787.00
2018-10-21T21:49:46.475Z,100786.00
2018-10-21T21:52:15.722Z,100788.00
2018-10-21T21:54:44.866Z,100788.00
2018-10-21T21:57:14.123Z,100797.00
2018-10-21T21:59:43.058Z,100792.00
2018-10-21T22:02:12.362Z,100788.00
2018-10-21T22:04:41.512Z,100786.00
2018-10-21T22:07:11.148Z,100791.00
2018-10-21T22:09:40.071Z,100784.00
2018-10-21T22:12:09.558Z,100785.00
2018-10-21T22:14:38.393Z,100781.00
2018-10-21T22:17:07.338Z,100786.00
2018-10-21T22:19:36.361Z,100783.00
2018-10-21T22:22:05.600Z,100781.00
2018-10-21T22:24:34.817Z,100787.00
2018-10-21T22:27:03.742Z,100792.00
2018-10-21T22:29:32.735Z,100781.00
2018-10-21T22:32:01.931Z,100785.00
2018-10-21T22:34:30.870Z,100784.00
2018-10-21T22:37:00.109Z,100791.00
2018-10-21T22:39:29.047Z,100787.00
2018-10-21T22:41:58.260Z,100787.00
2018-10-21T22:44:27.541Z,100787.00
2018-10-21T22:46:56.491Z,100786.00
2018-10-21T22:49:25.682Z,100784.00
2018-10-21T22:51:54.875Z,100778.00
2018-10-21T22:54:24.040Z,100779.00
2018-10-21T22:56:53.186Z,100777.00
2018-10-21T22:59:22.375Z,100768.00
2018-10-21T23:01:51.567Z,100772.00
2018-10-21T23:04:20.742Z,100767.00
2018-10-21T23:06:49.927Z,100772.00
2018-10-21T23:09:19.274Z,100766.00
2018-10-21T23:11:48.500Z,100772.00
2018-10-21T23:14:17.406Z,100763.00
2018-10-21T23:16:46.336Z,100760.00
2018-10-21T23:19:43.165Z,100755.00
2018-10-21T23:22:12.393Z,100758.00
2018-10-21T23:24:41.992Z,100759.00
2018-10-21T23:27:11.837Z,100752.00
2018-10-21T23:29:41.466Z,100765.00
2018-10-21T23:32:10.620Z,100755.00
2018-10-21T23:34:39.725Z,100748.00
2018-10-21T23:37:08.879Z,100739.00
2018-10-21T23:39:37.850Z,100758.00
2018-10-21T23:42:07.046Z,100745.00
2018-10-21T23:44:36.253Z,100744.00
2018-10-21T23:47:05.551Z,100745.00
2018-10-21T23:49:34.762Z,100738.00
2018-10-21T23:52:03.840Z,100734.00
2018-10-21T23:54:33.008Z,100735.00
2018-10-21T23:57:04.401Z,100735.00
2018-10-21T23:59:33.843Z,100731.00
